sensor_id;sensor_type;location;lat;lon;timestamp;P1;durP1;ratioP1;P2;durP2;ratioP2
36353;SDS011;22383;51.114;13.666;2022-07-22T00:01:19;10.68;;;6.55;;
36353;SDS011;22383;51.114;13.666;2022-07-22T00:03:46;6.53;;;5.88;;
36353;SDS011;22383;51.114;13.666;2022-07-22T00:06:14;10.73;;;6.35;;
36353;SDS011;22383;51.114;13.666;2022-07-22T00:08:41;13.40;;;6.20;;
36353;SDS011;22383;51.114;13.666;2022-07-22T00:11:08;9.05;;;5.43;;
36353;SDS011;22383;51.114;13.666;2022-07-22T00:13:36;6.57;;;5.72;;
36353;SDS011;22383;51.114;13.666;2022-07-22T00:16:03;8.85;;;5.80;;
36353;SDS011;22383;51.114;13.666;2022-07-22T00:20:58;7.28;;;5.10;;
36353;SDS011;22383;51.114;13.666;2022-07-22T00:23:25;8.25;;;5.22;;
36353;SDS011;22383;51.114;13.666;2022-07-22T00:25:52;7.18;;;5.35;;
36353;SDS011;22383;51.114;13.666;2022-07-22T00:28:20;7.63;;;5.30;;
36353;SDS011;22383;51.114;13.666;2022-07-22T00:30:48;8.60;;;5.18;;
36353;SDS011;22383;51.114;13.666;2022-07-22T00:33:20;7.10;;;4.90;;
36353;SDS011;22383;51.114;13.666;2022-07-22T00:35:49;7.10;;;5.53;;
36353;SDS011;22383;51.114;13.666;2022-07-22T00:38:17;8.70;;;4.97;;
36353;SDS011;22383;51.114;13.666;2022-07-22T00:40:44;9.50;;;5.50;;
36353;SDS011;22383;51.114;13.666;2022-07-22T00:43:12;9.68;;;5.30;;
36353;SDS011;22383;51.114;13.666;2022-07-22T00:45:39;7.97;;;4.88;;
36353;SDS011;22383;51.114;13.666;2022-07-22T00:48:07;7.07;;;5.20;;
36353;SDS011;22383;51.114;13.666;2022-07-22T00:53:02;7.65;;;5.32;;
36353;SDS011;22383;51.114;13.666;2022-07-22T00:57:57;9.73;;;5.25;;
36353;SDS011;22383;51.114;13.666;2022-07-22T01:00:24;7.45;;;5.10;;
36353;SDS011;22383;51.114;13.666;2022-07-22T01:02:51;9.70;;;5.15;;
36353;SDS011;22383;51.114;13.666;2022-07-22T01:05:19;11.32;;;5.72;;
36353;SDS011;22383;51.114;13.666;2022-07-22T01:10:15;6.63;;;5.13;;
36353;SDS011;22383;51.114;13.666;2022-07-22T01:12:42;7.03;;;5.22;;
36353;SDS011;22383;51.114;13.666;2022-07-22T01:15:09;8.40;;;4.82;;
36353;SDS011;22383;51.114;13.666;2022-07-22T01:17:37;6.18;;;4.43;;
36353;SDS011;22383;51.114;13.666;2022-07-22T01:20:05;9.18;;;5.22;;
36353;SDS011;22383;51.114;13.666;2022-07-22T01:22:34;9.65;;;5.13;;
36353;SDS011;22383;51.114;13.666;2022-07-22T01:25:02;7.18;;;5.07;;
36353;SDS011;22383;51.114;13.666;2022-07-22T01:27:30;6.30;;;4.45;;
36353;SDS011;22383;51.114;13.666;2022-07-22T01:29:57;8.95;;;4.93;;
36353;SDS011;22383;51.114;13.666;2022-07-22T01:32:25;7.80;;;5.38;;
36353;SDS011;22383;51.114;13.666;2022-07-22T01:34:52;6.63;;;4.85;;
36353;SDS011;22383;51.114;13.666;2022-07-22T01:37:20;9.48;;;5.25;;
36353;SDS011;22383;51.114;13.666;2022-07-22T01:39:47;10.82;;;5.68;;
36353;SDS011;22383;51.114;13.666;2022-07-22T01:42:15;8.70;;;6.28;;
36353;SDS011;22383;51.114;13.666;2022-07-22T01:44:43;7.38;;;5.63;;
36353;SDS011;22383;51.114;13.666;2022-07-22T01:47:11;8.18;;;5.80;;
36353;SDS011;22383;51.114;13.666;2022-07-22T01:49:38;7.57;;;6.18;;
36353;SDS011;22383;51.114;13.666;2022-07-22T01:52:05;10.10;;;6.07;;
36353;SDS011;22383;51.114;13.666;2022-07-22T01:54:34;7.47;;;5.57;;
36353;SDS011;22383;51.114;13.666;2022-07-22T01:57:01;8.82;;;5.97;;
36353;SDS011;22383;51.114;13.666;2022-07-22T01:59:29;11.27;;;6.10;;
36353;SDS011;22383;51.114;13.666;2022-07-22T02:01:57;10.65;;;6.03;;
36353;SDS011;22383;51.114;13.666;2022-07-22T02:04:25;12.63;;;6.65;;
36353;SDS011;22383;51.114;13.666;2022-07-22T02:06:53;10.45;;;6.43;;
36353;SDS011;22383;51.114;13.666;2022-07-22T02:09:21;8.25;;;6.32;;
36353;SDS011;22383;51.114;13.666;2022-07-22T02:11:52;8.68;;;5.85;;
36353;SDS011;22383;51.114;13.666;2022-07-22T02:14:19;11.45;;;6.28;;
36353;SDS011;22383;51.114;13.666;2022-07-22T02:16:49;8.32;;;6.22;;
36353;SDS011;22383;51.114;13.666;2022-07-22T02:19:17;8.55;;;5.57;;
36353;SDS011;22383;51.114;13.666;2022-07-22T02:21:45;9.70;;;5.40;;
36353;SDS011;22383;51.114;13.666;2022-07-22T02:24:12;7.85;;;5.68;;
36353;SDS011;22383;51.114;13.666;2022-07-22T02:26:40;6.90;;;5.32;;
36353;SDS011;22383;51.114;13.666;2022-07-22T02:29:07;8.10;;;5.65;;
36353;SDS011;22383;51.114;13.666;2022-07-22T02:31:35;8.02;;;5.55;;
36353;SDS011;22383;51.114;13.666;2022-07-22T02:34:06;6.90;;;5.25;;
36353;SDS011;22383;51.114;13.666;2022-07-22T02:36:33;8.95;;;6.47;;
36353;SDS011;22383;51.114;13.666;2022-07-22T02:39:02;10.32;;;5.63;;
36353;SDS011;22383;51.114;13.666;2022-07-22T02:41:31;11.27;;;6.18;;
36353;SDS011;22383;51.114;13.666;2022-07-22T02:48:58;7.63;;;4.88;;
36353;SDS011;22383;51.114;13.666;2022-07-22T02:51:26;7.88;;;5.68;;
36353;SDS011;22383;51.114;13.666;2022-07-22T02:53:56;8.60;;;6.15;;
36353;SDS011;22383;51.114;13.666;2022-07-22T02:58:51;7.35;;;5.93;;
36353;SDS011;22383;51.114;13.666;2022-07-22T03:01:21;7.18;;;5.72;;
36353;SDS011;22383;51.114;13.666;2022-07-22T03:03:53;7.07;;;5.72;;
36353;SDS011;22383;51.114;13.666;2022-07-22T03:06:22;7.15;;;6.30;;
36353;SDS011;22383;51.114;13.666;2022-07-22T03:08:56;8.80;;;6.10;;
36353;SDS011;22383;51.114;13.666;2022-07-22T03:11:25;8.65;;;5.90;;
36353;SDS011;22383;51.114;13.666;2022-07-22T03:13:52;7.72;;;5.70;;
36353;SDS011;22383;51.114;13.666;2022-07-22T03:16:19;9.85;;;6.82;;
36353;SDS011;22383;51.114;13.666;2022-07-22T03:18:47;8.30;;;7.07;;
36353;SDS011;22383;51.114;13.666;2022-07-22T03:21:14;8.80;;;7.03;;
36353;SDS011;22383;51.114;13.666;2022-07-22T03:23:43;9.63;;;7.32;;
36353;SDS011;22383;51.114;13.666;2022-07-22T03:26:11;9.60;;;7.07;;
36353;SDS011;22383;51.114;13.666;2022-07-22T03:28:38;9.98;;;7.72;;
36353;SDS011;22383;51.114;13.666;2022-07-22T03:31:05;10.38;;;8.18;;
36353;SDS011;22383;51.114;13.666;2022-07-22T03:33:33;9.77;;;7.68;;
36353;SDS011;22383;51.114;13.666;2022-07-22T03:36:00;8.93;;;7.57;;
36353;SDS011;22383;51.114;13.666;2022-07-22T03:38:27;11.00;;;8.35;;
36353;SDS011;22383;51.114;13.666;2022-07-22T03:40:56;8.55;;;7.05;;
36353;SDS011;22383;51.114;13.666;2022-07-22T03:43:24;10.13;;;7.63;;
36353;SDS011;22383;51.114;13.666;2022-07-22T03:45:51;10.90;;;7.43;;
36353;SDS011;22383;51.114;13.666;2022-07-22T03:48:19;8.57;;;7.32;;
36353;SDS011;22383;51.114;13.666;2022-07-22T03:50:46;12.65;;;7.82;;
36353;SDS011;22383;51.114;13.666;2022-07-22T03:53:15;9.57;;;7.68;;
36353;SDS011;22383;51.114;13.666;2022-07-22T03:55:43;11.63;;;7.35;;
36353;SDS011;22383;51.114;13.666;2022-07-22T03:58:10;10.98;;;8.00;;
36353;SDS011;22383;51.114;13.666;2022-07-22T04:03:06;8.70;;;6.60;;
36353;SDS011;22383;51.114;13.666;2022-07-22T04:06:00;10.35;;;7.63;;
36353;SDS011;22383;51.114;13.666;2022-07-22T04:08:41;7.75;;;6.25;;
36353;SDS011;22383;51.114;13.666;2022-07-22T04:11:08;10.55;;;6.93;;
36353;SDS011;22383;51.114;13.666;2022-07-22T04:13:35;7.22;;;6.32;;
36353;SDS011;22383;51.114;13.666;2022-07-22T04:16:03;10.52;;;6.63;;
36353;SDS011;22383;51.114;13.666;2022-07-22T04:18:31;8.85;;;6.38;;
36353;SDS011;22383;51.114;13.666;2022-07-22T04:20:59;7.93;;;6.70;;
36353;SDS011;22383;51.114;13.666;2022-07-22T04:23:33;11.00;;;7.68;;
36353;SDS011;22383;51.114;13.666;2022-07-22T04:26:10;9.43;;;6.60;;
36353;SDS011;22383;51.114;13.666;2022-07-22T04:28:37;10.27;;;7.22;;
36353;SDS011;22383;51.114;13.666;2022-07-22T04:31:05;11.50;;;7.30;;
36353;SDS011;22383;51.114;13.666;2022-07-22T04:33:35;10.90;;;7.13;;
36353;SDS011;22383;51.114;13.666;2022-07-22T04:36:02;7.20;;;6.50;;
36353;SDS011;22383;51.114;13.666;2022-07-22T04:38:31;8.30;;;7.10;;
36353;SDS011;22383;51.114;13.666;2022-07-22T04:41:02;11.10;;;7.00;;
36353;SDS011;22383;51.114;13.666;2022-07-22T04:43:29;9.50;;;6.97;;
36353;SDS011;22383;51.114;13.666;2022-07-22T04:45:57;10.43;;;6.78;;
36353;SDS011;22383;51.114;13.666;2022-07-22T04:48:28;10.18;;;7.57;;
36353;SDS011;22383;51.114;13.666;2022-07-22T04:50:59;12.52;;;7.28;;
36353;SDS011;22383;51.114;13.666;2022-07-22T04:53:29;9.60;;;7.63;;
36353;SDS011;22383;51.114;13.666;2022-07-22T04:56:14;14.60;;;8.55;;
36353;SDS011;22383;51.114;13.666;2022-07-22T04:58:43;12.32;;;8.88;;
36353;SDS011;22383;51.114;13.666;2022-07-22T05:01:10;14.18;;;8.65;;
36353;SDS011;22383;51.114;13.666;2022-07-22T05:03:38;13.63;;;9.73;;
36353;SDS011;22383;51.114;13.666;2022-07-22T05:06:06;12.82;;;10.30;;
36353;SDS011;22383;51.114;13.666;2022-07-22T05:08:37;10.65;;;7.95;;
36353;SDS011;22383;51.114;13.666;2022-07-22T05:11:04;9.82;;;7.03;;
36353;SDS011;22383;51.114;13.666;2022-07-22T05:13:33;13.50;;;7.38;;
36353;SDS011;22383;51.114;13.666;2022-07-22T05:16:02;11.15;;;9.00;;
36353;SDS011;22383;51.114;13.666;2022-07-22T05:18:33;15.50;;;8.45;;
36353;SDS011;22383;51.114;13.666;2022-07-22T05:21:01;16.48;;;9.32;;
36353;SDS011;22383;51.114;13.666;2022-07-22T05:23:30;11.55;;;8.43;;
36353;SDS011;22383;51.114;13.666;2022-07-22T05:25:57;16.73;;;8.93;;
36353;SDS011;22383;51.114;13.666;2022-07-22T05:28:25;13.68;;;10.32;;
36353;SDS011;22383;51.114;13.666;2022-07-22T05:30:52;11.10;;;7.90;;
36353;SDS011;22383;51.114;13.666;2022-07-22T05:33:21;12.23;;;9.07;;
36353;SDS011;22383;51.114;13.666;2022-07-22T05:36:02;16.85;;;8.90;;
36353;SDS011;22383;51.114;13.666;2022-07-22T05:38:42;12.68;;;8.27;;
36353;SDS011;22383;51.114;13.666;2022-07-22T05:41:10;12.52;;;7.50;;
36353;SDS011;22383;51.114;13.666;2022-07-22T05:43:38;9.38;;;7.40;;
36353;SDS011;22383;51.114;13.666;2022-07-22T05:46:05;10.73;;;7.13;;
36353;SDS011;22383;51.114;13.666;2022-07-22T05:48:34;8.73;;;6.70;;
36353;SDS011;22383;51.114;13.666;2022-07-22T05:51:02;8.20;;;6.30;;
36353;SDS011;22383;51.114;13.666;2022-07-22T05:53:31;12.10;;;6.97;;
36353;SDS011;22383;51.114;13.666;2022-07-22T05:55:58;7.05;;;6.35;;
36353;SDS011;22383;51.114;13.666;2022-07-22T05:58:34;10.32;;;6.50;;
36353;SDS011;22383;51.114;13.666;2022-07-22T06:01:01;9.57;;;6.40;;
36353;SDS011;22383;51.114;13.666;2022-07-22T06:03:30;9.90;;;6.70;;
36353;SDS011;22383;51.114;13.666;2022-07-22T06:05:58;11.35;;;6.53;;
36353;SDS011;22383;51.114;13.666;2022-07-22T06:08:25;7.32;;;5.63;;
36353;SDS011;22383;51.114;13.666;2022-07-22T06:10:52;8.43;;;5.88;;
36353;SDS011;22383;51.114;13.666;2022-07-22T06:13:21;8.95;;;6.13;;
36353;SDS011;22383;51.114;13.666;2022-07-22T06:15:49;6.40;;;5.68;;
36353;SDS011;22383;51.114;13.666;2022-07-22T06:18:17;8.77;;;6.00;;
36353;SDS011;22383;51.114;13.666;2022-07-22T06:20:44;8.82;;;6.10;;
36353;SDS011;22383;51.114;13.666;2022-07-22T06:23:12;8.70;;;6.00;;
36353;SDS011;22383;51.114;13.666;2022-07-22T06:25:39;8.98;;;6.18;;
36353;SDS011;22383;51.114;13.666;2022-07-22T06:28:29;6.95;;;5.75;;
36353;SDS011;22383;51.114;13.666;2022-07-22T06:30:57;10.88;;;6.20;;
36353;SDS011;22383;51.114;13.666;2022-07-22T06:33:26;10.45;;;6.30;;
36353;SDS011;22383;51.114;13.666;2022-07-22T06:35:55;6.90;;;5.75;;
36353;SDS011;22383;51.114;13.666;2022-07-22T06:38:24;6.53;;;5.60;;
36353;SDS011;22383;51.114;13.666;2022-07-22T06:41:20;9.82;;;6.55;;
36353;SDS011;22383;51.114;13.666;2022-07-22T06:43:56;9.13;;;6.28;;
36353;SDS011;22383;51.114;13.666;2022-07-22T06:46:56;8.13;;;5.70;;
36353;SDS011;22383;51.114;13.666;2022-07-22T06:49:23;9.38;;;6.05;;
36353;SDS011;22383;51.114;13.666;2022-07-22T06:51:52;8.25;;;5.20;;
36353;SDS011;22383;51.114;13.666;2022-07-22T06:54:19;7.25;;;5.75;;
36353;SDS011;22383;51.114;13.666;2022-07-22T06:56:48;7.05;;;5.72;;
36353;SDS011;22383;51.114;13.666;2022-07-22T06:59:20;7.97;;;6.32;;
36353;SDS011;22383;51.114;13.666;2022-07-22T07:01:47;10.30;;;6.30;;
36353;SDS011;22383;51.114;13.666;2022-07-22T07:04:17;5.93;;;5.00;;
36353;SDS011;22383;51.114;13.666;2022-07-22T07:06:45;7.43;;;5.18;;
36353;SDS011;22383;51.114;13.666;2022-07-22T07:09:16;13.48;;;5.65;;
36353;SDS011;22383;51.114;13.666;2022-07-22T07:11:53;7.25;;;5.13;;
36353;SDS011;22383;51.114;13.666;2022-07-22T07:14:46;8.48;;;6.10;;
36353;SDS011;22383;51.114;13.666;2022-07-22T07:17:34;5.93;;;5.25;;
36353;SDS011;22383;51.114;13.666;2022-07-22T07:20:05;10.65;;;5.57;;
36353;SDS011;22383;51.114;13.666;2022-07-22T07:22:33;7.53;;;4.97;;
36353;SDS011;22383;51.114;13.666;2022-07-22T07:25:03;7.63;;;5.50;;
36353;SDS011;22383;51.114;13.666;2022-07-22T07:27:51;7.57;;;5.55;;
36353;SDS011;22383;51.114;13.666;2022-07-22T07:30:24;7.88;;;5.97;;
36353;SDS011;22383;51.114;13.666;2022-07-22T07:35:19;8.60;;;6.32;;
36353;SDS011;22383;51.114;13.666;2022-07-22T07:37:49;9.35;;;5.50;;
36353;SDS011;22383;51.114;13.666;2022-07-22T07:40:16;8.02;;;5.97;;
36353;SDS011;22383;51.114;13.666;2022-07-22T07:42:44;8.57;;;6.35;;
36353;SDS011;22383;51.114;13.666;2022-07-22T07:45:19;6.82;;;5.68;;
36353;SDS011;22383;51.114;13.666;2022-07-22T07:47:47;7.80;;;6.13;;
36353;SDS011;22383;51.114;13.666;2022-07-22T07:50:15;8.23;;;6.53;;
36353;SDS011;22383;51.114;13.666;2022-07-22T07:52:43;10.82;;;6.32;;
36353;SDS011;22383;51.114;13.666;2022-07-22T07:57:47;6.63;;;5.85;;
36353;SDS011;22383;51.114;13.666;2022-07-22T08:00:24;7.97;;;6.35;;
36353;SDS011;22383;51.114;13.666;2022-07-22T08:02:57;7.50;;;6.28;;
36353;SDS011;22383;51.114;13.666;2022-07-22T08:05:27;7.38;;;6.03;;
36353;SDS011;22383;51.114;13.666;2022-07-22T08:07:58;8.90;;;5.80;;
36353;SDS011;22383;51.114;13.666;2022-07-22T08:10:26;6.55;;;5.60;;
36353;SDS011;22383;51.114;13.666;2022-07-22T08:13:22;10.40;;;6.57;;
36353;SDS011;22383;51.114;13.666;2022-07-22T08:16:18;7.45;;;6.32;;
36353;SDS011;22383;51.114;13.666;2022-07-22T08:18:47;7.90;;;7.00;;
36353;SDS011;22383;51.114;13.666;2022-07-22T08:23:55;7.78;;;6.10;;
36353;SDS011;22383;51.114;13.666;2022-07-22T08:26:23;6.82;;;5.78;;
36353;SDS011;22383;51.114;13.666;2022-07-22T08:28:57;10.43;;;6.07;;
36353;SDS011;22383;51.114;13.666;2022-07-22T08:31:29;7.30;;;5.78;;
36353;SDS011;22383;51.114;13.666;2022-07-22T08:34:03;7.85;;;6.22;;
36353;SDS011;22383;51.114;13.666;2022-07-22T08:36:31;7.28;;;6.07;;
36353;SDS011;22383;51.114;13.666;2022-07-22T08:38:59;8.63;;;6.25;;
36353;SDS011;22383;51.114;13.666;2022-07-22T08:41:28;7.45;;;6.30;;
36353;SDS011;22383;51.114;13.666;2022-07-22T08:44:03;8.20;;;6.82;;
36353;SDS011;22383;51.114;13.666;2022-07-22T08:46:31;7.80;;;6.60;;
36353;SDS011;22383;51.114;13.666;2022-07-22T08:49:19;10.75;;;7.47;;
36353;SDS011;22383;51.114;13.666;2022-07-22T08:51:54;10.07;;;6.68;;
36353;SDS011;22383;51.114;13.666;2022-07-22T08:54:27;7.30;;;6.53;;
36353;SDS011;22383;51.114;13.666;2022-07-22T08:56:56;6.15;;;5.55;;
36353;SDS011;22383;51.114;13.666;2022-07-22T08:59:24;9.77;;;5.90;;
36353;SDS011;22383;51.114;13.666;2022-07-22T09:02:05;8.57;;;6.32;;
36353;SDS011;22383;51.114;13.666;2022-07-22T09:04:49;6.93;;;6.22;;
36353;SDS011;22383;51.114;13.666;2022-07-22T09:07:47;8.68;;;6.70;;
36353;SDS011;22383;51.114;13.666;2022-07-22T09:10:32;9.15;;;6.10;;
36353;SDS011;22383;51.114;13.666;2022-07-22T09:13:19;8.27;;;6.05;;
36353;SDS011;22383;51.114;13.666;2022-07-22T09:16:05;7.10;;;6.03;;
36353;SDS011;22383;51.114;13.666;2022-07-22T09:18:45;19.80;;;6.68;;
36353;SDS011;22383;51.114;13.666;2022-07-22T09:21:45;12.93;;;6.25;;
36353;SDS011;22383;51.114;13.666;2022-07-22T09:24:30;9.20;;;6.13;;
36353;SDS011;22383;51.114;13.666;2022-07-22T09:27:26;7.90;;;5.45;;
36353;SDS011;22383;51.114;13.666;2022-07-22T09:30:19;11.38;;;6.53;;
36353;SDS011;22383;51.114;13.666;2022-07-22T09:33:06;8.02;;;6.07;;
36353;SDS011;22383;51.114;13.666;2022-07-22T09:35:40;10.52;;;5.97;;
36353;SDS011;22383;51.114;13.666;2022-07-22T09:38:16;6.82;;;6.13;;
36353;SDS011;22383;51.114;13.666;2022-07-22T09:40:45;9.73;;;6.43;;
36353;SDS011;22383;51.114;13.666;2022-07-22T09:43:18;9.10;;;6.30;;
36353;SDS011;22383;51.114;13.666;2022-07-22T09:45:47;11.02;;;6.18;;
36353;SDS011;22383;51.114;13.666;2022-07-22T09:48:17;8.10;;;6.57;;
36353;SDS011;22383;51.114;13.666;2022-07-22T09:50:57;6.88;;;5.65;;
36353;SDS011;22383;51.114;13.666;2022-07-22T09:53:47;8.15;;;5.95;;
36353;SDS011;22383;51.114;13.666;2022-07-22T09:56:22;10.48;;;6.07;;
36353;SDS011;22383;51.114;13.666;2022-07-22T09:58:50;9.65;;;5.55;;
36353;SDS011;22383;51.114;13.666;2022-07-22T10:01:23;9.82;;;5.78;;
36353;SDS011;22383;51.114;13.666;2022-07-22T10:03:52;7.07;;;5.72;;
36353;SDS011;22383;51.114;13.666;2022-07-22T10:06:23;7.07;;;5.63;;
36353;SDS011;22383;51.114;13.666;2022-07-22T10:08:51;9.15;;;6.10;;
36353;SDS011;22383;51.114;13.666;2022-07-22T10:11:26;7.55;;;5.63;;
36353;SDS011;22383;51.114;13.666;2022-07-22T10:13:53;7.40;;;5.70;;
36353;SDS011;22383;51.114;13.666;2022-07-22T10:16:22;9.20;;;6.32;;
36353;SDS011;22383;51.114;13.666;2022-07-22T10:18:50;6.80;;;5.65;;
36353;SDS011;22383;51.114;13.666;2022-07-22T10:21:30;8.85;;;6.65;;
36353;SDS011;22383;51.114;13.666;2022-07-22T10:24:06;8.45;;;6.10;;
36353;SDS011;22383;51.114;13.666;2022-07-22T10:29:48;9.68;;;6.25;;
36353;SDS011;22383;51.114;13.666;2022-07-22T10:40:21;8.10;;;5.90;;
36353;SDS011;22383;51.114;13.666;2022-07-22T10:45:35;6.30;;;5.45;;
36353;SDS011;22383;51.114;13.666;2022-07-22T10:48:06;7.40;;;6.32;;
36353;SDS011;22383;51.114;13.666;2022-07-22T10:50:39;13.77;;;5.72;;
36353;SDS011;22383;51.114;13.666;2022-07-22T10:53:24;9.63;;;5.47;;
36353;SDS011;22383;51.114;13.666;2022-07-22T10:56:22;6.57;;;5.82;;
36353;SDS011;22383;51.114;13.666;2022-07-22T10:58:51;5.63;;;5.13;;
36353;SDS011;22383;51.114;13.666;2022-07-22T11:01:23;7.25;;;5.40;;
36353;SDS011;22383;51.114;13.666;2022-07-22T11:03:56;6.22;;;5.28;;
36353;SDS011;22383;51.114;13.666;2022-07-22T11:06:41;7.28;;;4.93;;
36353;SDS011;22383;51.114;13.666;2022-07-22T11:09:11;7.47;;;5.30;;
36353;SDS011;22383;51.114;13.666;2022-07-22T11:11:43;7.63;;;5.38;;
36353;SDS011;22383;51.114;13.666;2022-07-22T11:14:18;5.72;;;5.13;;
36353;SDS011;22383;51.114;13.666;2022-07-22T11:16:48;7.30;;;5.18;;
36353;SDS011;22383;51.114;13.666;2022-07-22T11:19:27;7.63;;;5.00;;
36353;SDS011;22383;51.114;13.666;2022-07-22T11:21:56;7.30;;;5.38;;
36353;SDS011;22383;51.114;13.666;2022-07-22T11:24:25;6.93;;;4.38;;
36353;SDS011;22383;51.114;13.666;2022-07-22T11:26:53;7.50;;;4.82;;
36353;SDS011;22383;51.114;13.666;2022-07-22T11:29:30;7.55;;;4.90;;
36353;SDS011;22383;51.114;13.666;2022-07-22T11:32:01;14.32;;;4.70;;
36353;SDS011;22383;51.114;13.666;2022-07-22T11:34:30;10.02;;;5.47;;
36353;SDS011;22383;51.114;13.666;2022-07-22T11:36:57;6.63;;;4.90;;
36353;SDS011;22383;51.114;13.666;2022-07-22T11:41:54;6.43;;;4.60;;
36353;SDS011;22383;51.114;13.666;2022-07-22T11:44:25;5.25;;;4.15;;
36353;SDS011;22383;51.114;13.666;2022-07-22T11:46:55;6.85;;;4.43;;
36353;SDS011;22383;51.114;13.666;2022-07-22T11:49:28;8.75;;;4.50;;
36353;SDS011;22383;51.114;13.666;2022-07-22T11:51:58;5.40;;;4.10;;
36353;SDS011;22383;51.114;13.666;2022-07-22T11:54:26;5.13;;;4.43;;
36353;SDS011;22383;51.114;13.666;2022-07-22T11:56:53;10.98;;;4.53;;
36353;SDS011;22383;51.114;13.666;2022-07-22T11:59:23;7.72;;;5.07;;
36353;SDS011;22383;51.114;13.666;2022-07-22T12:01:51;4.90;;;3.92;;
36353;SDS011;22383;51.114;13.666;2022-07-22T12:04:21;6.57;;;4.95;;
36353;SDS011;22383;51.114;13.666;2022-07-22T12:06:50;5.85;;;4.25;;
36353;SDS011;22383;51.114;13.666;2022-07-22T12:09:24;9.38;;;4.13;;
36353;SDS011;22383;51.114;13.666;2022-07-22T12:11:54;4.30;;;3.90;;
36353;SDS011;22383;51.114;13.666;2022-07-22T12:14:26;5.75;;;4.05;;
36353;SDS011;22383;51.114;13.666;2022-07-22T12:16:59;5.22;;;4.03;;
36353;SDS011;22383;51.114;13.666;2022-07-22T12:19:30;6.43;;;3.70;;
36353;SDS011;22383;51.114;13.666;2022-07-22T12:22:00;4.35;;;3.90;;
36353;SDS011;22383;51.114;13.666;2022-07-22T12:24:31;5.60;;;3.85;;
36353;SDS011;22383;51.114;13.666;2022-07-22T12:27:00;4.28;;;3.58;;
36353;SDS011;22383;51.114;13.666;2022-07-22T12:29:30;6.18;;;3.63;;
36353;SDS011;22383;51.114;13.666;2022-07-22T12:32:10;7.82;;;4.18;;
36353;SDS011;22383;51.114;13.666;2022-07-22T12:34:56;4.35;;;3.90;;
36353;SDS011;22383;51.114;13.666;2022-07-22T12:37:26;5.07;;;3.33;;
36353;SDS011;22383;51.114;13.666;2022-07-22T12:42:31;4.75;;;3.70;;
36353;SDS011;22383;51.114;13.666;2022-07-22T12:45:06;4.30;;;3.90;;
36353;SDS011;22383;51.114;13.666;2022-07-22T12:53:07;4.45;;;3.17;;
36353;SDS011;22383;51.114;13.666;2022-07-22T12:55:52;6.55;;;3.03;;
36353;SDS011;22383;51.114;13.666;2022-07-22T12:58:26;4.05;;;3.60;;
36353;SDS011;22383;51.114;13.666;2022-07-22T13:00:56;5.20;;;3.20;;
36353;SDS011;22383;51.114;13.666;2022-07-22T13:03:25;6.57;;;3.03;;
36353;SDS011;22383;51.114;13.666;2022-07-22T13:05:54;4.63;;;3.13;;
36353;SDS011;22383;51.114;13.666;2022-07-22T13:08:23;5.00;;;3.10;;
36353;SDS011;22383;51.114;13.666;2022-07-22T13:10:51;6.18;;;2.95;;
36353;SDS011;22383;51.114;13.666;2022-07-22T13:13:19;4.63;;;3.35;;
36353;SDS011;22383;51.114;13.666;2022-07-22T13:15:47;8.15;;;3.85;;
36353;SDS011;22383;51.114;13.666;2022-07-22T13:18:15;7.00;;;3.42;;
36353;SDS011;22383;51.114;13.666;2022-07-22T13:20:43;3.53;;;3.10;;
36353;SDS011;22383;51.114;13.666;2022-07-22T13:23:10;5.07;;;3.20;;
36353;SDS011;22383;51.114;13.666;2022-07-22T13:25:38;4.75;;;3.38;;
36353;SDS011;22383;51.114;13.666;2022-07-22T13:30:32;3.90;;;2.90;;
36353;SDS011;22383;51.114;13.666;2022-07-22T13:33:00;4.35;;;2.83;;
36353;SDS011;22383;51.114;13.666;2022-07-22T13:35:27;4.80;;;2.92;;
36353;SDS011;22383;51.114;13.666;2022-07-22T13:37:56;3.45;;;3.15;;
36353;SDS011;22383;51.114;13.666;2022-07-22T13:40:25;6.28;;;3.13;;
36353;SDS011;22383;51.114;13.666;2022-07-22T13:45:19;4.93;;;3.13;;
36353;SDS011;22383;51.114;13.666;2022-07-22T13:47:47;4.20;;;3.47;;
36353;SDS011;22383;51.114;13.666;2022-07-22T13:50:14;3.53;;;3.17;;
36353;SDS011;22383;51.114;13.666;2022-07-22T13:52:41;3.60;;;3.25;;
36353;SDS011;22383;51.114;13.666;2022-07-22T13:55:08;3.85;;;3.00;;
36353;SDS011;22383;51.114;13.666;2022-07-22T13:57:35;5.18;;;3.35;;
36353;SDS011;22383;51.114;13.666;2022-07-22T14:00:04;3.80;;;3.40;;
36353;SDS011;22383;51.114;13.666;2022-07-22T14:02:40;3.20;;;2.83;;
36353;SDS011;22383;51.114;13.666;2022-07-22T14:05:11;4.68;;;3.17;;
36353;SDS011;22383;51.114;13.666;2022-07-22T14:10:05;9.27;;;3.53;;
36353;SDS011;22383;51.114;13.666;2022-07-22T14:12:33;4.57;;;2.92;;
36353;SDS011;22383;51.114;13.666;2022-07-22T14:15:00;4.80;;;3.08;;
36353;SDS011;22383;51.114;13.666;2022-07-22T14:17:30;3.50;;;3.20;;
36353;SDS011;22383;51.114;13.666;2022-07-22T14:22:27;3.05;;;2.85;;
36353;SDS011;22383;51.114;13.666;2022-07-22T14:24:55;3.35;;;3.05;;
36353;SDS011;22383;51.114;13.666;2022-07-22T14:27:23;4.38;;;3.20;;
36353;SDS011;22383;51.114;13.666;2022-07-22T14:29:50;3.88;;;2.80;;
36353;SDS011;22383;51.114;13.666;2022-07-22T14:32:17;4.68;;;2.80;;
36353;SDS011;22383;51.114;13.666;2022-07-22T14:34:45;4.30;;;3.13;;
36353;SDS011;22383;51.114;13.666;2022-07-22T14:39:39;4.88;;;3.00;;
36353;SDS011;22383;51.114;13.666;2022-07-22T14:42:07;5.20;;;3.20;;
36353;SDS011;22383;51.114;13.666;2022-07-22T14:44:34;3.85;;;2.95;;
36353;SDS011;22383;51.114;13.666;2022-07-22T14:47:01;6.03;;;3.42;;
36353;SDS011;22383;51.114;13.666;2022-07-22T14:49:29;4.30;;;2.97;;
36353;SDS011;22383;51.114;13.666;2022-07-22T14:51:56;3.55;;;3.17;;
36353;SDS011;22383;51.114;13.666;2022-07-22T14:54:23;3.70;;;3.20;;
36353;SDS011;22383;51.114;13.666;2022-07-22T14:56:50;3.42;;;3.10;;
36353;SDS011;22383;51.114;13.666;2022-07-22T14:59:17;5.28;;;3.13;;
36353;SDS011;22383;51.114;13.666;2022-07-22T15:01:45;5.10;;;3.03;;
36353;SDS011;22383;51.114;13.666;2022-07-22T15:04:12;5.70;;;3.35;;
36353;SDS011;22383;51.114;13.666;2022-07-22T15:06:39;3.60;;;3.03;;
36353;SDS011;22383;51.114;13.666;2022-07-22T15:09:06;4.53;;;2.97;;
36353;SDS011;22383;51.114;13.666;2022-07-22T15:11:34;7.57;;;3.03;;
36353;SDS011;22383;51.114;13.666;2022-07-22T15:14:01;5.18;;;2.80;;
36353;SDS011;22383;51.114;13.666;2022-07-22T15:16:29;9.68;;;3.78;;
36353;SDS011;22383;51.114;13.666;2022-07-22T15:18:57;4.57;;;3.17;;
36353;SDS011;22383;51.114;13.666;2022-07-22T15:21:24;5.05;;;2.95;;
36353;SDS011;22383;51.114;13.666;2022-07-22T15:23:57;3.55;;;2.80;;
36353;SDS011;22383;51.114;13.666;2022-07-22T15:26:26;3.53;;;2.95;;
36353;SDS011;22383;51.114;13.666;2022-07-22T15:28:53;5.43;;;2.55;;
36353;SDS011;22383;51.114;13.666;2022-07-22T15:31:20;3.03;;;2.83;;
36353;SDS011;22383;51.114;13.666;2022-07-22T15:33:48;4.10;;;2.90;;
36353;SDS011;22383;51.114;13.666;2022-07-22T15:36:16;10.90;;;3.60;;
36353;SDS011;22383;51.114;13.666;2022-07-22T15:38:44;5.88;;;3.35;;
36353;SDS011;22383;51.114;13.666;2022-07-22T15:41:11;6.40;;;2.90;;
36353;SDS011;22383;51.114;13.666;2022-07-22T15:43:39;4.75;;;2.97;;
36353;SDS011;22383;51.114;13.666;2022-07-22T15:46:07;23.95;;;4.35;;
36353;SDS011;22383;51.114;13.666;2022-07-22T15:48:35;4.85;;;3.17;;
36353;SDS011;22383;51.114;13.666;2022-07-22T15:51:02;7.88;;;3.42;;
36353;SDS011;22383;51.114;13.666;2022-07-22T15:53:30;4.47;;;3.30;;
36353;SDS011;22383;51.114;13.666;2022-07-22T15:55:57;5.63;;;3.00;;